Time;durP1;ratioP1;P1;durP2;ratioP2;P2;SDS_P1;SDS_P2;PMS_P1;PMS_P2;Temp;Humidity;BMP_temperature;BMP_pressure;BME280_temperature;BME280_humidity;BME280_pressure;Samples;Min_cycle;Max_cycle;Signal;HPM_P1;HPM_P2
2021/12/30 00:01:04;;;;;;;1.88;0.70;;;12.10;92.80;;;;;;5035068;28;20480;-73
2021/12/30 00:03:30;;;;;;;1.02;0.40;;;12.10;92.90;;;;;;5034522;28;20079;-75
2021/12/30 00:05:55;;;;;;;2.60;0.98;;;12.10;92.50;;;;;;5034507;28;20427;-74
2021/12/30 00:08:21;;;;;;;2.17;0.63;;;12.10;92.40;;;;;;5034782;28;20362;-73
2021/12/30 00:10:48;;;;;;;2.17;0.50;;;12.10;92.80;;;;;;5034912;28;20041;-75
2021/12/30 00:13:13;;;;;;;1.48;0.50;;;12.00;93.30;;;;;;5034724;28;20021;-75
2021/12/30 00:15:39;;;;;;;0.77;0.52;;;12.00;93.50;;;;;;5034880;28;20036;-74
2021/12/30 00:18:07;;;;;;;2.65;0.60;;;11.90;94.00;;;;;;5034717;28;20017;-73
2021/12/30 00:20:33;;;;;;;1.17;0.73;;;11.90;94.60;;;;;;5034680;28;20021;-76
2021/12/30 00:23:02;;;;;;;0.65;0.47;;;11.80;95.00;;;;;;5034798;28;20389;-75
2021/12/30 00:25:28;;;;;;;0.47;0.40;;;11.80;95.60;;;;;;5034479;28;20044;-74
2021/12/30 00:27:54;;;;;;;0.65;0.45;;;11.70;95.70;;;;;;5034781;28;20025;-73
2021/12/30 00:30:20;;;;;;;2.00;0.65;;;11.70;95.70;;;;;;5034469;28;20028;-73
2021/12/30 00:32:45;;;;;;;0.80;0.40;;;11.70;95.70;;;;;;5034667;28;20025;-74
2021/12/30 00:35:12;;;;;;;1.17;0.22;;;11.70;95.20;;;;;;5034446;28;20389;-73
2021/12/30 00:37:38;;;;;;;0.55;0.30;;;11.80;94.60;;;;;;5034694;28;20029;-73
2021/12/30 00:40:06;;;;;;;0.43;0.20;;;11.70;94.40;;;;;;5034524;28;20043;-74
2021/12/30 00:42:31;;;;;;;0.47;0.20;;;11.70;94.00;;;;;;5034482;28;20380;-74
2021/12/30 00:44:57;;;;;;;1.17;0.40;;;11.70;93.90;;;;;;5034598;28;20022;-74
2021/12/30 00:47:23;;;;;;;0.30;0.20;;;11.80;93.40;;;;;;5034425;28;20084;-74
2021/12/30 00:49:48;;;;;;;0.75;0.45;;;11.70;93.50;;;;;;5034492;28;20031;-74
2021/12/30 00:52:14;;;;;;;1.13;0.35;;;11.70;93.60;;;;;;5051986;28;20087;-73
2021/12/30 00:54:39;;;;;;;2.38;0.40;;;11.70;93.40;;;;;;5034532;28;20493;-74
2021/12/30 00:57:05;;;;;;;0.65;0.50;;;11.70;93.50;;;;;;5034429;28;20021;-73
2021/12/30 00:59:30;;;;;;;1.95;0.40;;;11.70;93.50;;;;;;5034409;28;20025;-73
2021/12/30 01:01:56;;;;;;;1.80;0.60;;;11.70;93.20;;;;;;5034381;28;20017;-73
2021/12/30 01:04:22;;;;;;;1.75;0.20;;;11.70;92.70;;;;;;5034314;28;20025;-73
2021/12/30 01:06:48;;;;;;;0.30;0.20;;;11.70;92.50;;;;;;5034284;28;20169;-74
2021/12/30 01:09:13;;;;;;;2.65;0.50;;;11.70;92.20;;;;;;5034046;28;20027;-74
2021/12/30 01:11:39;;;;;;;0.57;0.30;;;11.70;91.90;;;;;;5034153;28;20397;-74
2021/12/30 01:14:15;;;;;;;1.85;0.80;;;11.70;91.80;;;;;;5034175;28;20024;-75
2021/12/30 01:16:44;;;;;;;2.20;0.35;;;11.70;91.80;;;;;;5036589;28;20040;-74
2021/12/30 01:21:54;;;;;;;0.50;0.30;;;11.70;91.60;;;;;;5055991;28;20036;-75
2021/12/30 01:24:22;;;;;;;1.30;0.20;;;11.60;91.40;;;;;;5037750;28;20021;-75
2021/12/30 01:26:48;;;;;;;0.55;0.20;;;11.60;91.20;;;;;;5037778;28;20033;-75
2021/12/30 01:29:14;;;;;;;0.85;0.10;;;11.60;91.40;;;;;;5037684;28;20378;-75
2021/12/30 01:31:39;;;;;;;0.35;0.30;;;11.50;91.70;;;;;;5037521;28;20041;-75
2021/12/30 01:34:05;;;;;;;0.98;0.30;;;11.50;91.80;;;;;;5037474;28;20041;-75
2021/12/30 01:36:31;;;;;;;1.70;0.50;;;11.50;92.00;;;;;;5037427;28;20021;-75
2021/12/30 01:38:57;;;;;;;1.73;0.60;;;11.50;91.90;;;;;;5037501;28;20104;-75
2021/12/30 01:41:23;;;;;;;2.08;0.43;;;11.50;91.60;;;;;;5036896;28;20033;-75
2021/12/30 01:43:50;;;;;;;1.58;0.40;;;11.50;91.50;;;;;;5037180;28;20545;-75
2021/12/30 01:46:16;;;;;;;1.30;0.30;;;11.40;91.50;;;;;;5037274;28;20025;-75
2021/12/30 01:48:42;;;;;;;1.83;0.50;;;11.40;91.60;;;;;;5037482;28;20044;-74
2021/12/30 01:51:09;;;;;;;0.93;0.57;;;11.50;91.70;;;;;;5037161;28;20063;-75
2021/12/30 01:53:35;;;;;;;2.25;0.47;;;11.50;91.50;;;;;;5037210;28;20029;-75
2021/12/30 01:56:03;;;;;;;1.00;0.40;;;11.50;91.60;;;;;;5055008;28;20108;-75
2021/12/30 01:58:29;;;;;;;0.70;0.30;;;11.50;91.70;;;;;;5054930;28;20032;-75
2021/12/30 02:00:54;;;;;;;1.60;0.40;;;11.50;91.80;;;;;;5037217;28;20032;-75
2021/12/30 02:03:21;;;;;;;0.52;0.22;;;11.50;91.90;;;;;;5036983;28;20047;-75
2021/12/30 02:05:48;;;;;;;2.10;0.40;;;11.50;91.90;;;;;;5037101;28;20121;-75
2021/12/30 02:08:17;;;;;;;0.90;0.20;;;11.40;92.00;;;;;;5036996;28;20021;-75
2021/12/30 02:10:44;;;;;;;2.35;0.40;;;11.40;92.10;;;;;;5036817;28;20082;-74
2021/12/30 02:13:11;;;;;;;0.68;0.30;;;11.40;92.10;;;;;;5036804;28;20037;-75
2021/12/30 02:15:37;;;;;;;0.73;0.20;;;11.40;92.30;;;;;;5036984;28;20025;-74
2021/12/30 02:18:04;;;;;;;0.57;0.22;;;11.50;92.50;;;;;;5036586;28;20036;-74
2021/12/30 02:20:52;;;;;;;2.40;0.40;;;11.50;92.10;;;;;;5036493;28;20389;-74
2021/12/30 02:23:26;;;;;;;1.30;0.40;;;11.50;92.00;;;;;;5036408;28;20028;-74
2021/12/30 02:25:54;;;;;;;1.25;0.20;;;11.60;91.80;;;;;;5036537;28;20059;-74
2021/12/30 02:28:23;;;;;;;0.30;0.20;;;11.60;91.30;;;;;;5053334;28;20388;-74
2021/12/30 02:30:49;;;;;;;0.90;0.47;;;11.60;91.30;;;;;;5036415;28;20029;-74
2021/12/30 02:33:15;;;;;;;0.80;0.30;;;11.70;91.00;;;;;;5036339;28;20489;-73
2021/12/30 02:35:41;;;;;;;0.15;0.15;;;11.80;90.80;;;;;;5036266;28;20055;-73
2021/12/30 02:38:07;;;;;;;3.40;0.28;;;11.80;90.50;;;;;;5036382;28;20047;-74
2021/12/30 02:40:40;;;;;;;1.38;0.30;;;11.80;90.40;;;;;;5036307;28;20387;-74
2021/12/30 02:43:10;;;;;;;1.33;0.32;;;11.90;90.10;;;;;;5036271;28;20021;-74
2021/12/30 02:45:36;;;;;;;3.65;0.47;;;11.90;90.00;;;;;;5036219;28;20072;-74
2021/12/30 02:48:02;;;;;;;0.50;0.20;;;11.90;90.20;;;;;;5036128;28;20477;-73
2021/12/30 02:50:29;;;;;;;1.05;0.50;;;11.90;90.20;;;;;;5035890;28;20025;-73
2021/12/30 02:52:55;;;;;;;0.10;0.10;;;12.00;90.20;;;;;;5036164;28;20398;-74
2021/12/30 02:55:20;;;;;;;0.10;0.10;;;12.00;91.00;;;;;;5035949;28;20021;-74
2021/12/30 02:57:46;;;;;;;0.57;0.20;;;12.00;90.80;;;;;;5036040;28;20025;-74
2021/12/30 03:00:12;;;;;;;0.65;0.10;;;12.00;91.10;;;;;;5035970;28;20031;-74
2021/12/30 03:02:39;;;;;;;0.52;0.20;;;11.90;91.50;;;;;;5035996;28;20029;-74
2021/12/30 03:05:07;;;;;;;0.20;0.20;;;12.00;91.20;;;;;;5035818;28;20078;-74
2021/12/30 03:07:33;;;;;;;0.35;0.20;;;11.90;91.30;;;;;;5035611;28;20028;-74
2021/12/30 03:09:58;;;;;;;0.60;0.20;;;11.90;91.30;;;;;;5035486;28;20029;-74
2021/12/30 03:12:24;;;;;;;0.25;0.20;;;11.90;90.80;;;;;;5035531;28;20037;-74
2021/12/30 03:14:50;;;;;;;0.88;0.10;;;12.00;90.20;;;;;;5035888;28;20025;-74
2021/12/30 03:17:15;;;;;;;0.32;0.20;;;12.00;90.30;;;;;;5035477;28;20478;-74
2021/12/30 03:19:41;;;;;;;0.85;0.20;;;12.00;90.40;;;;;;5035590;28;20071;-75
2021/12/30 03:22:07;;;;;;;1.35;0.25;;;12.00;90.00;;;;;;5035608;28;20021;-74
2021/12/30 03:24:32;;;;;;;0.17;0.10;;;12.10;89.10;;;;;;5035412;28;20025;-74
2021/12/30 03:26:58;;;;;;;0.10;0.10;;;12.10;88.90;;;;;;5035553;28;20031;-74
2021/12/30 03:29:24;;;;;;;0.30;0.10;;;12.10;89.00;;;;;;5035157;28;20466;-75
2021/12/30 03:31:49;;;;;;;0.35;0.20;;;12.20;88.10;;;;;;5035156;28;20037;-74
2021/12/30 03:34:15;;;;;;;1.13;0.08;;;12.10;88.10;;;;;;5035154;28;20049;-74
2021/12/30 03:36:40;;;;;;;0.00;0.00;;;12.10;88.30;;;;;;5035389;28;20441;-73
2021/12/30 03:39:07;;;;;;;0.08;0.08;;;12.20;87.50;;;;;;5034959;28;20017;-74
2021/12/30 03:41:33;;;;;;;0.00;0.00;;;12.30;87.50;;;;;;5034906;28;20392;-74
2021/12/30 03:44:01;;;;;;;0.32;0.10;;;12.20;87.10;;;;;;5035111;28;20033;-74
2021/12/30 03:46:29;;;;;;;0.38;0.10;;;12.30;87.20;;;;;;5034997;28;20111;-74
2021/12/30 03:48:55;;;;;;;0.32;0.00;;;12.30;87.10;;;;;;5035095;28;20017;-74
2021/12/30 03:51:23;;;;;;;0.98;0.00;;;12.30;86.60;;;;;;5034967;28;20059;-73
2021/12/30 03:53:55;;;;;;;1.48;0.28;;;12.40;86.30;;;;;;5035158;28;20595;-74
2021/12/30 03:56:27;;;;;;;0.00;0.00;;;12.40;86.30;;;;;;5034966;28;20481;-74
2021/12/30 03:58:53;;;;;;;0.30;0.00;;;12.40;86.30;;;;;;5035072;28;20311;-74
2021/12/30 04:01:20;;;;;;;0.40;0.20;;;12.40;86.40;;;;;;5034563;28;20047;-73
2021/12/30 04:03:46;;;;;;;0.30;0.00;;;12.40;86.10;;;;;;5035188;28;20025;-73
2021/12/30 04:06:13;;;;;;;0.60;0.10;;;12.50;86.10;;;;;;5034700;28;20367;-74
2021/12/30 04:08:39;;;;;;;0.30;0.10;;;12.50;87.00;;;;;;5034986;28;20021;-74
2021/12/30 04:11:05;;;;;;;0.00;0.00;;;12.50;86.20;;;;;;5035041;28;20061;-74
2021/12/30 04:13:30;;;;;;;0.25;0.17;;;12.60;85.80;;;;;;5041068;28;20037;-74
2021/12/30 04:15:56;;;;;;;2.05;0.10;;;12.60;85.80;;;;;;5035273;28;20468;-74
2021/12/30 04:18:22;;;;;;;0.30;0.05;;;12.60;85.80;;;;;;5035006;28;20036;-74
2021/12/30 04:20:48;;;;;;;0.73;0.08;;;12.50;86.10;;;;;;5034985;28;20424;-73
2021/12/30 04:23:14;;;;;;;0.30;0.20;;;12.50;86.00;;;;;;5034951;28;20112;-74
2021/12/30 04:25:40;;;;;;;1.65;0.25;;;12.50;86.10;;;;;;5034983;28;20100;-73
2021/12/30 04:28:06;;;;;;;0.00;0.00;;;12.60;86.10;;;;;;5034886;28;20031;-73
2021/12/30 04:30:31;;;;;;;0.98;0.00;;;12.60;85.80;;;;;;5034798;28;20021;-73
2021/12/30 04:32:57;;;;;;;1.65;0.10;;;12.60;85.90;;;;;;5034941;28;20236;-73
2021/12/30 04:35:23;;;;;;;0.17;0.08;;;12.60;86.00;;;;;;5034628;28;20406;-74
2021/12/30 04:37:49;;;;;;;0.88;0.10;;;12.50;86.00;;;;;;5034729;28;20029;-73
2021/12/30 04:40:15;;;;;;;0.85;0.10;;;12.50;86.20;;;;;;5034674;28;20115;-74
2021/12/30 04:42:42;;;;;;;0.22;0.00;;;12.50;86.30;;;;;;5052446;28;20087;-74
2021/12/30 04:45:11;;;;;;;0.25;0.05;;;12.40;87.20;;;;;;5017927;28;20144;-74
2021/12/30 04:47:40;;;;;;;0.65;0.10;;;12.50;86.30;;;;;;5034365;28;20474;-75
2021/12/30 04:50:08;;;;;;;0.22;0.20;;;12.50;86.50;;;;;;5034750;28;20083;-75
2021/12/30 04:52:34;;;;;;;0.00;0.00;;;12.50;86.30;;;;;;5039188;28;20033;-75
2021/12/30 04:54:59;;;;;;;0.43;0.10;;;12.50;86.40;;;;;;5038430;28;20021;-75
2021/12/30 04:57:25;;;;;;;0.65;0.20;;;12.50;86.30;;;;;;5038363;28;20463;-75
2021/12/30 04:59:51;;;;;;;0.10;0.00;;;12.50;86.30;;;;;;5038480;28;20389;-74
2021/12/30 05:02:16;;;;;;;0.00;0.00;;;12.50;86.20;;;;;;5038215;28;20489;-75
2021/12/30 05:04:42;;;;;;;1.10;0.20;;;12.50;86.20;;;;;;5038117;28;20535;-75
2021/12/30 05:07:08;;;;;;;0.20;0.10;;;12.50;86.30;;;;;;5038239;28;20068;-74
2021/12/30 05:09:33;;;;;;;0.10;0.10;;;12.60;86.10;;;;;;5037954;28;20116;-74
2021/12/30 05:11:59;;;;;;;0.00;0.00;;;12.60;85.90;;;;;;5038223;28;20033;-74
2021/12/30 05:14:25;;;;;;;0.00;0.00;;;12.60;85.90;;;;;;5037899;28;20021;-74
2021/12/30 05:16:52;;;;;;;0.00;0.00;;;12.60;85.80;;;;;;5037900;28;20027;-74
2021/12/30 05:19:18;;;;;;;0.00;0.00;;;12.60;85.80;;;;;;5037864;28;20432;-74
2021/12/30 05:21:44;;;;;;;0.00;0.00;;;12.60;86.10;;;;;;5038024;28;20028;-74
2021/12/30 05:24:09;;;;;;;0.00;0.00;;;12.60;86.10;;;;;;5037916;28;20074;-74
2021/12/30 05:26:35;;;;;;;0.10;0.10;;;12.70;86.00;;;;;;5038071;28;20122;-75
2021/12/30 05:29:03;;;;;;;0.10;0.05;;;12.70;85.90;;;;;;5037888;28;20025;-74
2021/12/30 05:31:29;;;;;;;0.40;0.00;;;12.80;85.70;;;;;;5037660;28;20507;-74
2021/12/30 05:33:55;;;;;;;0.25;0.00;;;12.80;85.60;;;;;;5037697;28;20048;-74
2021/12/30 05:36:20;;;;;;;0.00;0.00;;;12.80;85.60;;;;;;5036852;28;20044;-74
2021/12/30 05:38:46;;;;;;;2.45;0.20;;;12.80;85.80;;;;;;5037377;28;20033;-74
2021/12/30 05:41:12;;;;;;;0.22;0.10;;;12.90;85.80;;;;;;5037577;28;20028;-74
2021/12/30 05:43:38;;;;;;;0.20;0.15;;;12.90;85.80;;;;;;5037620;28;20032;-74
2021/12/30 05:46:03;;;;;;;0.47;0.30;;;12.80;85.60;;;;;;5037464;28;20059;-74
2021/12/30 05:48:29;;;;;;;0.10;0.10;;;12.80;85.70;;;;;;5037120;28;20031;-74
2021/12/30 05:50:59;;;;;;;0.65;0.15;;;12.90;85.40;;;;;;5037244;28;20493;-74
2021/12/30 05:53:25;;;;;;;1.45;0.10;;;12.90;85.40;;;;;;5037051;28;20025;-74
2021/12/30 05:55:51;;;;;;;0.00;0.00;;;12.90;85.30;;;;;;5037113;28;20021;-74
2021/12/30 05:58:16;;;;;;;1.45;0.15;;;13.00;85.30;;;;;;5037175;28;20075;-74
2021/12/30 06:00:44;;;;;;;0.00;0.00;;;12.90;85.30;;;;;;5037404;28;20017;-74
2021/12/30 06:03:09;;;;;;;0.10;0.10;;;13.00;86.10;;;;;;5035634;28;20458;-74
2021/12/30 06:05:35;;;;;;;0.43;0.03;;;12.90;85.30;;;;;;5037246;28;20029;-74
2021/12/30 06:08:01;;;;;;;0.10;0.10;;;13.00;85.20;;;;;;5036957;28;20051;-75
2021/12/30 06:10:26;;;;;;;0.03;0.00;;;13.00;85.20;;;;;;5037049;28;20097;-75
2021/12/30 06:12:52;;;;;;;0.00;0.00;;;13.10;85.60;;;;;;5037005;28;20033;-75
2021/12/30 06:15:18;;;;;;;2.30;0.30;;;13.00;85.00;;;;;;5036935;28;20389;-75
2021/12/30 06:17:44;;;;;;;0.03;0.03;;;13.00;85.30;;;;;;5036884;28;20028;-75
2021/12/30 06:20:13;;;;;;;0.20;0.00;;;13.00;85.40;;;;;;5036858;28;20026;-75
2021/12/30 06:22:39;;;;;;;0.08;0.08;;;13.00;85.40;;;;;;5036894;28;20082;-75
2021/12/30 06:25:05;;;;;;;0.10;0.03;;;13.00;85.50;;;;;;5036720;28;20033;-75
2021/12/30 06:27:31;;;;;;;0.10;0.10;;;13.00;85.40;;;;;;5036511;28;20111;-74
2021/12/30 06:29:57;;;;;;;0.20;0.20;;;13.00;85.50;;;;;;5036942;28;20114;-75
2021/12/30 06:32:22;;;;;;;0.10;0.10;;;13.00;85.50;;;;;;5036459;28;20495;-74
2021/12/30 06:34:48;;;;;;;1.30;0.00;;;12.90;85.60;;;;;;5036362;28;20543;-76
2021/12/30 06:37:13;;;;;;;0.38;0.13;;;13.00;85.60;;;;;;5036420;28;20119;-74
2021/12/30 06:39:39;;;;;;;0.00;0.00;;;13.00;85.40;;;;;;5036544;28;20017;-74
2021/12/30 06:42:05;;;;;;;0.10;0.08;;;13.00;85.50;;;;;;5036442;28;20025;-75
2021/12/30 06:44:30;;;;;;;0.10;0.10;;;13.00;85.00;;;;;;5036410;28;20025;-73
2021/12/30 06:47:01;;;;;;;0.00;0.00;;;13.00;84.90;;;;;;5036324;28;20477;-74
2021/12/30 06:49:34;;;;;;;0.20;0.00;;;13.00;85.10;;;;;;5036136;28;20021;-74
2021/12/30 06:52:00;;;;;;;0.10;0.08;;;13.00;85.00;;;;;;5036062;28;20477;-74
2021/12/30 06:54:25;;;;;;;0.00;0.00;;;13.00;85.10;;;;;;5035832;28;20032;-74
2021/12/30 06:56:55;;;;;;;0.28;0.10;;;13.10;85.00;;;;;;5036090;28;20473;-74
2021/12/30 06:59:21;;;;;;;0.10;0.00;;;13.00;85.10;;;;;;5035942;28;20032;-74
2021/12/30 07:01:47;;;;;;;0.20;0.20;;;13.00;85.10;;;;;;5035977;28;20029;-74
2021/12/30 07:04:13;;;;;;;0.50;0.20;;;13.00;85.30;;;;;;5035758;28;20108;-74
2021/12/30 07:06:39;;;;;;;0.10;0.10;;;12.90;85.40;;;;;;5035413;28;20175;-74
2021/12/30 07:09:05;;;;;;;2.20;0.20;;;12.90;85.60;;;;;;5035756;28;20021;-74
2021/12/30 07:11:31;;;;;;;0.03;0.03;;;12.90;85.70;;;;;;5035495;28;20555;-73
2021/12/30 07:13:56;;;;;;;0.00;0.00;;;12.80;85.60;;;;;;5035332;28;20083;-74
2021/12/30 07:16:22;;;;;;;0.08;0.08;;;12.90;85.60;;;;;;5035609;28;20124;-74
2021/12/30 07:18:47;;;;;;;0.30;0.10;;;12.80;85.70;;;;;;5035658;28;20110;-75
2021/12/30 07:21:13;;;;;;;0.30;0.20;;;12.90;85.60;;;;;;5035319;28;20021;-74
2021/12/30 07:23:39;;;;;;;0.03;0.03;;;12.90;85.10;;;;;;5053389;28;20029;-74
2021/12/30 07:26:04;;;;;;;0.52;0.45;;;13.00;84.80;;;;;;5035355;28;20519;-74
2021/12/30 07:28:30;;;;;;;1.02;0.60;;;13.00;84.90;;;;;;5035287;28;20032;-75
2021/12/30 07:30:56;;;;;;;0.13;0.10;;;12.90;84.90;;;;;;5035108;28;20087;-75
2021/12/30 07:33:21;;;;;;;0.00;0.00;;;13.00;84.60;;;;;;5035307;28;20060;-75
2021/12/30 07:35:47;;;;;;;0.10;0.10;;;13.10;84.50;;;;;;5035088;28;20048;-74
2021/12/30 07:38:12;;;;;;;0.22;0.17;;;13.00;84.40;;;;;;5035153;28;20477;-75
2021/12/30 07:40:38;;;;;;;1.85;0.30;;;13.00;84.40;;;;;;5035027;28;20023;-74
2021/12/30 07:43:04;;;;;;;0.20;0.20;;;13.10;84.60;;;;;;5052966;28;20421;-75
2021/12/30 07:45:29;;;;;;;0.10;0.10;;;13.10;84.50;;;;;;5034913;28;20021;-74
2021/12/30 07:47:55;;;;;;;0.10;0.10;;;13.10;84.60;;;;;;5034869;28;20032;-75
2021/12/30 07:50:22;;;;;;;0.10;0.10;;;13.10;84.60;;;;;;5034502;28;20059;-75
2021/12/30 07:52:48;;;;;;;0.20;0.10;;;13.10;84.80;;;;;;5034740;28;20037;-74
2021/12/30 07:55:14;;;;;;;0.10;0.10;;;13.10;85.10;;;;;;5034755;28;20534;-75
2021/12/30 07:57:40;;;;;;;0.45;0.10;;;13.00;85.10;;;;;;5034781;28;20462;-75
2021/12/30 08:00:10;;;;;;;0.10;0.00;;;13.00;85.10;;;;;;5034923;28;20098;-74
2021/12/30 08:02:36;;;;;;;0.20;0.20;;;13.00;85.00;;;;;;5034628;28;20048;-75
2021/12/30 08:05:02;;;;;;;0.10;0.10;;;13.00;85.00;;;;;;5034638;28;20056;-75
2021/12/30 08:07:27;;;;;;;0.10;0.10;;;13.00;85.10;;;;;;5052365;28;20084;-75
2021/12/30 08:09:54;;;;;;;0.88;0.63;;;13.10;85.10;;;;;;5052422;28;20100;-75
2021/12/30 08:12:20;;;;;;;0.20;0.20;;;13.00;85.10;;;;;;5034445;28;20037;-74
2021/12/30 08:14:45;;;;;;;0.17;0.10;;;13.10;85.10;;;;;;5034500;28;20441;-75
2021/12/30 08:17:11;;;;;;;0.13;0.10;;;13.10;85.00;;;;;;5034468;28;20489;-75
2021/12/30 08:19:37;;;;;;;0.20;0.15;;;13.10;85.10;;;;;;5034338;28;20489;-74
2021/12/30 08:22:03;;;;;;;0.30;0.17;;;13.10;85.10;;;;;;5034525;28;20032;-75
2021/12/30 08:24:29;;;;;;;0.68;0.38;;;13.20;84.80;;;;;;5034369;28;20388;-79
2021/12/30 08:26:55;;;;;;;0.65;0.47;;;13.30;84.00;;;;;;5058195;28;20017;-79
2021/12/30 08:29:21;;;;;;;0.10;0.10;;;13.40;83.70;;;;;;5039267;28;20040;-80
2021/12/30 08:31:47;;;;;;;0.10;0.10;;;13.40;83.90;;;;;;5060952;28;20060;-80
2021/12/30 08:34:13;;;;;;;0.20;0.10;;;13.40;84.00;;;;;;5057056;28;20068;-73
2021/12/30 08:36:39;;;;;;;0.30;0.30;;;13.50;84.00;;;;;;5038784;28;20032;-76
2021/12/30 08:39:05;;;;;;;0.17;0.17;;;13.50;83.90;;;;;;5038979;28;20052;-75
2021/12/30 08:41:30;;;;;;;1.17;0.47;;;13.50;83.70;;;;;;5038384;28;20477;-78
2021/12/30 08:43:56;;;;;;;0.40;0.10;;;13.60;83.40;;;;;;5038359;28;20029;-76
2021/12/30 08:46:21;;;;;;;0.50;0.20;;;13.70;83.20;;;;;;5038165;28;20112;-76
2021/12/30 08:48:47;;;;;;;0.57;0.28;;;13.70;83.10;;;;;;5037904;28;20060;-77
2021/12/30 08:51:13;;;;;;;0.20;0.20;;;13.90;82.70;;;;;;5055981;28;20386;-75
2021/12/30 08:53:40;;;;;;;0.50;0.45;;;13.90;82.20;;;;;;5055857;28;20047;-83
2021/12/30 08:56:11;;;;;;;0.45;0.40;;;13.90;82.10;;;;;;5059317;28;20032;-79
2021/12/30 08:58:38;;;;;;;0.30;0.30;;;14.00;81.80;;;;;;5059805;28;20043;-77
2021/12/30 09:01:04;;;;;;;0.00;0.00;;;14.10;81.50;;;;;;5055836;28;20425;-81
2021/12/30 09:03:29;;;;;;;0.10;0.10;;;14.10;81.50;;;;;;5055830;28;20052;-81
2021/12/30 09:05:55;;;;;;;0.38;0.30;;;14.20;81.30;;;;;;5056274;28;20100;-78
2021/12/30 09:08:21;;;;;;;0.22;0.22;;;14.20;80.80;;;;;;5055364;28;20029;-83
2021/12/30 09:10:49;;;;;;;0.10;0.10;;;14.30;80.60;;;;;;5055346;28;20057;-78
2021/12/30 09:13:15;;;;;;;0.10;0.00;;;14.30;81.20;;;;;;5055503;28;20025;-83
2021/12/30 09:15:42;;;;;;;0.40;0.10;;;14.30;80.60;;;;;;5055533;28;20017;-83
2021/12/30 09:18:08;;;;;;;0.10;0.10;;;14.30;80.60;;;;;;5055683;28;20107;-79
2021/12/30 09:20:37;;;;;;;0.13;0.10;;;14.40;80.40;;;;;;5055638;28;20025;-83
2021/12/30 09:23:06;;;;;;;0.30;0.25;;;14.50;80.00;;;;;;5037590;28;20377;-83
2021/12/30 09:25:32;;;;;;;0.45;0.40;;;14.50;80.40;;;;;;5037503;28;20518;-78
2021/12/30 09:27:58;;;;;;;0.35;0.10;;;14.40;80.60;;;;;;5055415;28;20017;-83
2021/12/30 09:30:26;;;;;;;0.10;0.10;;;14.40;80.20;;;;;;5054969;28;20036;-83
2021/12/30 09:32:54;;;;;;;0.80;0.70;;;14.40;80.40;;;;;;5038263;28;20392;-83
2021/12/30 09:35:20;;;;;;;0.10;0.10;;;14.30;80.60;;;;;;5055157;28;20041;-80
2021/12/30 09:37:46;;;;;;;0.10;0.10;;;14.30;81.30;;;;;;5055848;28;20029;-88
2021/12/30 09:40:14;;;;;;;0.50;0.10;;;14.20;81.70;;;;;;5055834;28;20052;-80
2021/12/30 09:42:44;;;;;;;1.10;0.10;;;14.10;82.00;;;;;;5054690;28;20070;-76
2021/12/30 09:45:11;;;;;;;0.40;0.30;;;14.20;81.70;;;;;;5054545;28;20577;-75
2021/12/30 09:47:44;;;;;;;0.10;0.00;;;14.20;81.90;;;;;;5054896;28;20060;-76
2021/12/30 09:50:10;;;;;;;0.30;0.30;;;14.20;82.00;;;;;;5054692;28;20047;-75
2021/12/30 09:52:36;;;;;;;0.25;0.20;;;14.20;82.10;;;;;;5054562;28;20075;-76
2021/12/30 09:55:02;;;;;;;0.17;0.17;;;14.20;82.00;;;;;;5054085;28;20025;-75
2021/12/30 09:57:27;;;;;;;0.20;0.20;;;14.20;82.10;;;;;;5054304;28;20025;-76
2021/12/30 09:59:53;;;;;;;1.17;0.10;;;14.30;81.80;;;;;;5054382;28;20098;-76
2021/12/30 10:02:19;;;;;;;0.20;0.10;;;14.50;81.40;;;;;;5054321;28;20017;-76
2021/12/30 10:04:44;;;;;;;0.50;0.50;;;14.50;81.20;;;;;;5054380;28;20033;-75
2021/12/30 10:07:21;;;;;;;0.63;0.20;;;14.50;80.80;;;;;;5036416;28;20147;-74
2021/12/30 10:09:50;;;;;;;0.10;0.10;;;14.40;80.80;;;;;;5054475;28;20033;-75
2021/12/30 10:12:32;;;;;;;0.40;0.20;;;14.60;80.40;;;;;;5054175;28;20029;-75
2021/12/30 10:14:58;;;;;;;0.20;0.20;;;15.10;79.10;;;;;;5054499;28;20474;-75
2021/12/30 10:17:27;;;;;;;0.40;0.30;;;15.50;77.70;;;;;;5054294;28;20029;-75
2021/12/30 10:19:54;;;;;;;0.52;0.20;;;15.80;75.20;;;;;;5054358;28;20027;-75
2021/12/30 10:22:22;;;;;;;0.30;0.20;;;15.90;75.50;;;;;;5054169;28;20060;-75
2021/12/30 10:24:49;;;;;;;0.32;0.20;;;16.30;74.00;;;;;;5036719;28;20078;-75
2021/12/30 10:27:30;;;;;;;0.20;0.10;;;16.30;73.20;;;;;;5036376;28;20092;-74
2021/12/30 10:29:56;;;;;;;0.47;0.08;;;16.60;72.30;;;;;;5054052;28;20119;-74
2021/12/30 10:32:26;;;;;;;0.30;0.20;;;16.60;71.80;;;;;;5035980;28;20037;-74
2021/12/30 10:35:11;;;;;;;0.40;0.15;;;17.00;71.00;;;;;;5053922;28;20049;-75
2021/12/30 10:37:38;;;;;;;0.10;0.10;;;17.20;69.60;;;;;;5036223;28;20036;-74
2021/12/30 10:40:27;;;;;;;0.30;0.10;;;17.30;69.20;;;;;;5054046;28;20441;-75
2021/12/30 10:43:13;;;;;;;0.05;0.00;;;17.10;70.30;;;;;;5036118;28;20128;-75
2021/12/30 10:45:39;;;;;;;0.17;0.15;;;16.80;69.60;;;;;;5053392;28;20056;-74
2021/12/30 10:48:08;;;;;;;0.10;0.10;;;16.60;71.70;;;;;;5034436;28;20102;-75
2021/12/30 10:50:34;;;;;;;0.28;0.13;;;16.50;72.30;;;;;;5035629;28;20482;-74
2021/12/30 10:53:00;;;;;;;0.30;0.20;;;16.50;71.90;;;;;;5035600;28;20029;-74
2021/12/30 10:55:26;;;;;;;0.15;0.10;;;16.50;72.00;;;;;;5053285;28;20021;-74
2021/12/30 10:57:53;;;;;;;0.30;0.15;;;16.00;73.30;;;;;;5035223;28;20037;-75
2021/12/30 11:00:25;;;;;;;1.15;0.93;;;15.80;74.20;;;;;;5052297;28;20112;-75
2021/12/30 11:02:50;;;;;;;0.68;0.50;;;15.70;75.00;;;;;;5035138;28;20024;-75
2021/12/30 11:05:18;;;;;;;3.15;0.45;;;15.50;76.40;;;;;;5052852;28;20413;-75
2021/12/30 11:07:47;;;;;;;0.10;0.10;;;15.50;76.70;;;;;;5035454;28;20071;-76
2021/12/30 11:10:17;;;;;;;0.10;0.10;;;15.60;76.20;;;;;;5035338;28;20036;-76
2021/12/30 11:12:46;;;;;;;0.45;0.30;;;16.20;74.50;;;;;;5035329;28;20133;-75
2021/12/30 11:15:27;;;;;;;0.45;0.20;;;17.20;71.10;;;;;;5035616;28;20023;-74
2021/12/30 11:18:10;;;;;;;0.00;0.00;;;17.80;68.20;;;;;;5053133;28;20086;-73
2021/12/30 11:20:39;;;;;;;0.10;0.10;;;18.70;64.80;;;;;;5052606;28;20028;-74
2021/12/30 11:23:05;;;;;;;1.23;0.57;;;18.90;63.00;;;;;;5053098;28;20028;-73
2021/12/30 11:25:31;;;;;;;0.80;0.50;;;19.10;62.60;;;;;;5035068;28;20036;-73
2021/12/30 11:27:58;;;;;;;0.57;0.57;;;18.70;62.60;;;;;;5018620;28;20079;-74
2021/12/30 11:30:23;;;;;;;0.50;0.40;;;18.30;64.70;;;;;;5035380;28;20055;-73
2021/12/30 11:32:49;;;;;;;0.73;0.30;;;17.90;66.20;;;;;;5035017;28;20427;-75
2021/12/30 11:35:18;;;;;;;1.80;1.10;;;17.60;67.70;;;;;;5052907;28;20124;-73
2021/12/30 11:37:45;;;;;;;0.22;0.17;;;17.40;68.00;;;;;;5052923;28;20063;-73
2021/12/30 11:40:13;;;;;;;0.70;0.17;;;17.10;68.70;;;;;;5036605;28;20021;-74
2021/12/30 11:42:48;;;;;;;0.65;0.28;;;16.60;71.00;;;;;;5055247;28;20051;-74
2021/12/30 11:45:29;;;;;;;0.30;0.30;;;16.60;72.00;;;;;;5035782;28;20024;-74
2021/12/30 11:47:57;;;;;;;0.20;0.20;;;17.00;71.00;;;;;;5052887;28;20021;-73
2021/12/30 11:50:26;;;;;;;0.43;0.30;;;16.90;71.40;;;;;;5034935;28;20500;-73
2021/12/30 11:53:08;;;;;;;0.88;0.40;;;17.00;70.50;;;;;;5034640;28;20043;-73
2021/12/30 11:55:54;;;;;;;0.98;0.43;;;17.80;68.50;;;;;;5034821;28;20021;-72
2021/12/30 11:58:28;;;;;;;0.52;0.10;;;18.70;64.80;;;;;;5034635;28;20029;-73
2021/12/30 12:01:21;;;;;;;0.55;0.30;;;19.10;62.60;;;;;;5034562;28;20044;-72
2021/12/30 12:03:55;;;;;;;0.65;0.30;;;20.10;60.10;;;;;;5041891;28;20033;-74
2021/12/30 12:06:35;;;;;;;1.65;0.20;;;21.70;55.00;;;;;;5034447;28;20025;-74
2021/12/30 12:09:12;;;;;;;0.47;0.17;;;22.80;50.30;;;;;;5034293;28;20071;-73
2021/12/30 12:11:40;;;;;;;0.40;0.30;;;23.30;47.40;;;;;;5034185;28;20060;-73
2021/12/30 12:14:24;;;;;;;0.13;0.10;;;23.40;46.00;;;;;;5034273;28;20048;-74
2021/12/30 12:16:55;;;;;;;0.10;0.10;;;24.30;44.10;;;;;;5034290;28;20053;-74
2021/12/30 12:19:43;;;;;;;0.90;0.20;;;25.40;41.40;;;;;;5034244;28;20056;-74
2021/12/30 12:22:29;;;;;;;0.20;0.10;;;27.20;37.40;;;;;;5052348;28;20033;-74
2021/12/30 12:25:05;;;;;;;2.17;0.10;;;28.10;34.30;;;;;;5034573;28;20446;-73
2021/12/30 12:27:34;;;;;;;0.45;0.30;;;25.40;38.00;;;;;;5051970;28;20382;-74
2021/12/30 12:30:00;;;;;;;0.05;0.00;;;23.60;42.90;;;;;;5052792;28;20096;-74
2021/12/30 12:32:29;;;;;;;0.40;0.40;;;22.30;46.40;;;;;;5052232;28;20500;-75
2021/12/30 12:34:56;;;;;;;0.77;0.40;;;21.20;50.10;;;;;;5034144;28;20053;-74
2021/12/30 12:37:33;;;;;;;0.50;0.13;;;20.10;54.40;;;;;;5034195;28;20131;-73
2021/12/30 12:40:11;;;;;;;1.55;0.50;;;18.90;59.70;;;;;;5034614;28;20028;-74
2021/12/30 12:42:43;;;;;;;0.35;0.30;;;18.10;63.20;;;;;;5034337;28;20033;-73
2021/12/30 12:45:18;;;;;;;0.10;0.10;;;17.60;66.20;;;;;;5052061;28;20083;-73
2021/12/30 12:47:45;;;;;;;1.90;0.28;;;17.40;67.40;;;;;;5053501;28;20543;-74
2021/12/30 12:50:11;;;;;;;0.20;0.10;;;17.20;68.40;;;;;;5033975;28;20037;-73
2021/12/30 12:52:44;;;;;;;1.05;0.40;;;17.10;69.90;;;;;;5033703;28;20532;-74